Thomaston, New York
Current Conditions -  °F | °C
As of 10:28 PM on Monday 22 Dec 2014 (Local Time) from KLGA Reporting Station
Light Rain Light Rain  
Wind Chill: 38°   Ceiling: 600
Heat Index: 43°   Visibility: 2mi
Dew Point: 41°   Wind: 8mph
Humidity: 93%   Direction: 40°NE
Pressure: 30.2"   Gusts: NA
Location:  40.786°N, 73.7291°W
Report Text: KLGA 230328Z 04007KT 2SM -RA BR BKN006 OVC009 06/05 A3020 RMK AO2 P0001
Loading
Personal Weather Stations






























Interactive Weather Map New forecast layout! Learn more

10-Day Weather Forecast

Advertisements
Track Severe Weather on mobile